createdAt,value
2018-12-26T00:01:03.509Z,3.20
2018-12-26T00:03:44.383Z,3.20
2018-12-26T00:06:25.035Z,3.20
2018-12-26T00:09:05.648Z,3.20
2018-12-26T00:11:46.503Z,3.20
2018-12-26T00:14:27.076Z,3.10
2018-12-26T00:17:07.991Z,3.10
2018-12-26T00:19:49.059Z,3.00
2018-12-26T00:22:29.723Z,3.00
2018-12-26T00:25:10.687Z,3.00
2018-12-26T00:27:51.302Z,3.00
2018-12-26T00:30:32.004Z,3.00
2018-12-26T00:33:12.620Z,3.00
2018-12-26T00:35:53.817Z,3.00
2018-12-26T00:38:34.492Z,3.00
2018-12-26T00:41:15.457Z,3.00
2018-12-26T00:43:55.922Z,3.10
2018-12-26T00:46:36.673Z,3.10
2018-12-26T00:49:17.490Z,3.20
2018-12-26T00:51:58.419Z,3.20
2018-12-26T00:54:38.964Z,3.10
2018-12-26T00:57:19.506Z,3.10
2018-12-26T01:00:00.141Z,3.10
2018-12-26T01:02:41.315Z,3.10
2018-12-26T01:05:21.967Z,3.20
2018-12-26T01:08:02.703Z,3.10
2018-12-26T01:10:42.991Z,3.00
2018-12-26T01:13:23.724Z,3.00
2018-12-26T01:16:04.696Z,3.00
2018-12-26T01:18:45.271Z,3.00
2018-12-26T01:21:26.915Z,3.00
2018-12-26T01:24:08.011Z,3.00
2018-12-26T01:26:48.283Z,3.00
2018-12-26T01:29:33.037Z,3.00
2018-12-26T01:32:13.600Z,3.00
2018-12-26T01:34:54.044Z,3.10
2018-12-26T01:37:34.620Z,3.00
2018-12-26T01:40:15.595Z,3.10
2018-12-26T01:42:56.087Z,3.10
2018-12-26T01:45:36.546Z,3.10
2018-12-26T01:48:17.242Z,3.10
2018-12-26T01:50:57.979Z,3.10
2018-12-26T01:53:38.499Z,3.10
2018-12-26T01:56:27.701Z,3.00
2018-12-26T01:59:01.609Z,3.00
2018-12-26T02:01:42.700Z,2.90
2018-12-26T02:04:23.631Z,2.90
2018-12-26T02:07:04.163Z,2.90
2018-12-26T02:09:44.768Z,2.90
2018-12-26T02:12:25.542Z,2.90
2018-12-26T02:15:05.897Z,2.90
2018-12-26T02:17:46.738Z,3.00
2018-12-26T02:20:27.303Z,3.00
2018-12-26T02:23:08.327Z,3.00
2018-12-26T02:25:49.697Z,3.10
2018-12-26T02:28:30.300Z,3.10
2018-12-26T02:31:10.715Z,3.00
2018-12-26T02:33:51.260Z,2.90
2018-12-26T02:36:32.237Z,2.90
2018-12-26T02:39:13.528Z,2.90
2018-12-26T02:41:53.964Z,2.90
2018-12-26T02:44:34.831Z,2.80
2018-12-26T02:47:15.631Z,2.80
2018-12-26T02:49:56.811Z,2.80
2018-12-26T02:52:37.748Z,2.80
2018-12-26T02:55:18.724Z,2.80
2018-12-26T02:57:59.208Z,2.90
2018-12-26T03:00:40.199Z,2.90
2018-12-26T03:03:20.988Z,2.80
2018-12-26T03:06:02.591Z,2.80
2018-12-26T03:08:43.315Z,2.80
2018-12-26T03:11:24.128Z,2.90
2018-12-26T03:14:04.859Z,2.90
2018-12-26T03:16:45.932Z,2.80
2018-12-26T03:19:26.430Z,2.90
2018-12-26T03:22:07.159Z,2.90
2018-12-26T03:24:47.953Z,2.90
2018-12-26T03:27:28.932Z,2.90
2018-12-26T03:30:09.492Z,2.80
2018-12-26T03:32:50.192Z,2.70
2018-12-26T03:35:30.994Z,2.90
2018-12-26T03:38:11.700Z,2.80
2018-12-26T03:40:52.314Z,2.90
2018-12-26T03:43:33.356Z,2.90
2018-12-26T03:46:13.710Z,2.80
2018-12-26T03:48:54.195Z,2.80
2018-12-26T03:51:34.532Z,2.70
2018-12-26T03:54:15.157Z,2.80
2018-12-26T03:56:55.594Z,2.80
2018-12-26T03:59:36.158Z,2.80
2018-12-26T04:02:16.738Z,2.80
2018-12-26T04:04:57.553Z,2.60
2018-12-26T04:07:38.381Z,2.70
2018-12-26T04:10:19.276Z,2.60
2018-12-26T04:12:59.964Z,2.60
2018-12-26T04:15:40.619Z,2.60
2018-12-26T04:18:20.921Z,2.60
2018-12-26T04:21:01.592Z,2.60
2018-12-26T04:23:42.031Z,2.60
2018-12-26T04:29:26.717Z,2.80
2018-12-26T04:32:07.355Z,2.80
2018-12-26T04:34:47.980Z,2.80
2018-12-26T04:37:28.264Z,2.70
2018-12-26T04:40:09.252Z,2.70
2018-12-26T04:42:49.796Z,2.70
2018-12-26T04:45:30.631Z,2.70
2018-12-26T04:48:11.851Z,2.70
2018-12-26T04:50:52.711Z,2.70
2018-12-26T04:53:33.373Z,2.70
2018-12-26T04:56:14.491Z,2.70
2018-12-26T04:58:55.571Z,2.80
2018-12-26T05:01:36.291Z,2.80
2018-12-26T05:04:16.527Z,2.80
2018-12-26T05:06:57.546Z,2.80
2018-12-26T05:09:38.204Z,2.80
2018-12-26T05:12:19.323Z,2.80
2018-12-26T05:15:00.484Z,2.70
2018-12-26T05:17:41.231Z,2.70
2018-12-26T05:20:21.476Z,2.60
2018-12-26T05:23:02.163Z,2.70
2018-12-26T05:25:42.889Z,2.60
2018-12-26T05:28:24.163Z,2.60
2018-12-26T05:31:04.719Z,2.60
2018-12-26T05:33:45.873Z,2.60
2018-12-26T05:36:26.116Z,2.60
2018-12-26T05:39:06.868Z,2.50
2018-12-26T05:41:47.430Z,2.40
2018-12-26T05:44:28.019Z,2.30
2018-12-26T05:47:08.338Z,2.30
2018-12-26T05:49:49.327Z,2.40
2018-12-26T05:52:30.428Z,2.40
2018-12-26T05:55:11.372Z,2.50
2018-12-26T05:57:51.677Z,2.60
2018-12-26T06:00:32.611Z,2.60
2018-12-26T06:03:13.156Z,2.50
2018-12-26T06:05:53.751Z,2.50
2018-12-26T06:08:34.072Z,2.50
2018-12-26T06:11:14.947Z,2.50
2018-12-26T06:13:55.193Z,2.40
2018-12-26T06:16:35.991Z,2.50
2018-12-26T06:19:16.284Z,2.50
2018-12-26T06:22:00.155Z,2.50
2018-12-26T06:24:41.096Z,2.50
2018-12-26T06:27:22.125Z,2.50
2018-12-26T06:30:02.935Z,2.60
2018-12-26T06:32:43.700Z,2.60
2018-12-26T06:35:24.619Z,2.60
2018-12-26T06:38:05.837Z,2.50
2018-12-26T06:40:46.939Z,2.40
2018-12-26T06:43:27.707Z,2.40
2018-12-26T06:49:27.535Z,2.30
2018-12-26T06:52:08.460Z,2.20
2018-12-26T06:54:49.433Z,2.30
2018-12-26T06:57:29.822Z,2.30
2018-12-26T07:00:10.859Z,2.40
2018-12-26T07:02:52.255Z,2.40
2018-12-26T07:05:32.811Z,2.40
2018-12-26T07:08:13.224Z,2.50
2018-12-26T07:10:53.995Z,2.50
2018-12-26T07:13:34.547Z,2.60
2018-12-26T07:16:15.615Z,2.60
2018-12-26T07:18:56.062Z,2.60
2018-12-26T07:21:36.927Z,2.60
2018-12-26T07:27:36.395Z,2.40
2018-12-26T07:30:16.822Z,2.30
2018-12-26T07:36:18.394Z,2.40
2018-12-26T07:38:47.132Z,2.40
2018-12-26T07:41:15.573Z,2.40
2018-12-26T07:47:13.282Z,2.30
2018-12-26T07:49:41.787Z,2.20
2018-12-26T07:52:10.282Z,2.20
2018-12-26T07:54:38.720Z,2.30
2018-12-26T07:57:07.907Z,2.30
2018-12-26T07:59:37.711Z,2.30
2018-12-26T08:02:06.669Z,2.20
2018-12-26T08:04:35.431Z,2.20
2018-12-26T08:07:03.895Z,2.10
2018-12-26T08:09:32.326Z,2.10
2018-12-26T08:12:00.799Z,2.10
2018-12-26T08:14:29.241Z,2.10
2018-12-26T08:16:57.955Z,2.00
2018-12-26T08:22:55.415Z,2.10
2018-12-26T08:28:52.360Z,2.20
2018-12-26T08:31:20.827Z,2.20
2018-12-26T08:33:49.263Z,2.20
2018-12-26T08:36:19.808Z,2.20
2018-12-26T08:38:48.375Z,2.20
2018-12-26T08:41:18.628Z,2.20
2018-12-26T08:43:47.251Z,2.30
2018-12-26T08:46:15.718Z,2.40
2018-12-26T08:48:44.431Z,2.50
2018-12-26T08:51:12.870Z,2.50
2018-12-26T08:57:10.450Z,2.60
2018-12-26T08:59:38.936Z,2.60
2018-12-26T09:02:07.374Z,2.60
2018-12-26T09:04:35.801Z,2.60
2018-12-26T09:07:04.279Z,2.70
2018-12-26T09:09:32.702Z,2.70
2018-12-26T09:15:29.891Z,2.60
2018-12-26T09:21:27.555Z,2.70
2018-12-26T09:23:56.030Z,2.80
2018-12-26T09:26:24.467Z,2.80
2018-12-26T09:32:21.548Z,2.80
2018-12-26T09:38:19.152Z,2.70
2018-12-26T09:44:16.991Z,2.70
2018-12-26T09:46:45.749Z,2.80
2018-12-26T09:49:14.584Z,2.80
2018-12-26T09:51:43.383Z,2.90
2018-12-26T09:54:12.166Z,2.90
2018-12-26T09:56:40.603Z,2.80
2018-12-26T09:59:09.265Z,2.90
2018-12-26T10:01:37.978Z,2.80
2018-12-26T10:04:06.414Z,2.70
2018-12-26T10:06:34.851Z,2.80
2018-12-26T10:12:32.000Z,2.90
2018-12-26T10:15:00.858Z,2.80
2018-12-26T10:21:10.287Z,2.80
2018-12-26T10:27:20.002Z,2.90
2018-12-26T10:29:48.783Z,2.90
2018-12-26T10:35:46.103Z,2.80
2018-12-26T10:41:31.816Z,3.00
2018-12-26T10:47:05.103Z,3.20
2018-12-26T10:49:33.856Z,3.10
2018-12-26T10:55:19.282Z,3.20
2018-12-26T11:01:29.112Z,3.10
2018-12-26T11:03:57.542Z,3.10
2018-12-26T11:06:25.985Z,3.00
2018-12-26T11:08:54.922Z,3.10
2018-12-26T11:15:06.627Z,3.00
2018-12-26T11:17:35.240Z,3.00
2018-12-26T11:20:06.583Z,3.00
2018-12-26T11:22:35.231Z,3.00
2018-12-26T11:25:05.299Z,3.20
2018-12-26T11:31:02.050Z,3.20
2018-12-26T11:33:30.776Z,3.10
2018-12-26T11:35:59.214Z,3.10
2018-12-26T11:38:27.654Z,3.00
2018-12-26T11:40:56.430Z,3.00
2018-12-26T11:43:25.280Z,3.00
2018-12-26T11:49:21.926Z,3.00
2018-12-26T11:51:50.768Z,3.10
2018-12-26T11:54:19.581Z,3.10
2018-12-26T11:56:48.048Z,3.20
2018-12-26T11:59:16.877Z,3.30
2018-12-26T12:05:26.235Z,3.20
2018-12-26T12:07:54.751Z,3.40
2018-12-26T12:13:51.821Z,3.40
2018-12-26T12:16:20.565Z,3.50
2018-12-26T12:18:49.071Z,3.50
2018-12-26T12:21:17.518Z,3.30
2018-12-26T12:23:46.318Z,3.30
2018-12-26T12:26:14.761Z,3.40
2018-12-26T12:28:43.196Z,3.40
2018-12-26T12:31:11.787Z,3.30
2018-12-26T12:33:40.531Z,3.30
2018-12-26T12:36:08.959Z,3.30
2018-12-26T12:38:37.514Z,3.20
2018-12-26T12:44:34.967Z,3.20
2018-12-26T12:47:03.411Z,3.00
2018-12-26T12:53:00.735Z,2.70
2018-12-26T12:55:29.566Z,2.80
2018-12-26T12:57:58.011Z,2.70
2018-12-26T13:00:26.443Z,2.80
2018-12-26T13:06:23.203Z,2.80
2018-12-26T13:08:52.011Z,2.80
2018-12-26T13:11:20.451Z,2.80
2018-12-26T13:13:49.234Z,2.90
2018-12-26T13:16:18.235Z,2.90
2018-12-26T13:22:28.444Z,3.00
2018-12-26T13:24:56.879Z,3.10
2018-12-26T13:27:25.311Z,3.10
2018-12-26T13:29:54.173Z,3.00
2018-12-26T13:32:22.745Z,3.00
2018-12-26T13:34:51.179Z,2.90
2018-12-26T13:37:19.986Z,2.90
2018-12-26T13:43:29.953Z,2.80
2018-12-26T13:45:58.386Z,2.70
2018-12-26T13:48:26.822Z,2.60
2018-12-26T13:50:55.373Z,2.60
2018-12-26T13:53:24.190Z,2.70
2018-12-26T13:55:52.618Z,2.70
2018-12-26T13:58:21.099Z,2.70
2018-12-26T14:00:49.542Z,2.70
2018-12-26T14:06:46.282Z,2.70
2018-12-26T14:09:14.719Z,2.70
2018-12-26T14:11:43.501Z,2.70
2018-12-26T14:14:11.939Z,2.70
2018-12-26T14:16:40.379Z,2.70
2018-12-26T14:19:08.846Z,2.70
2018-12-26T14:21:37.289Z,2.70
2018-12-26T14:24:06.088Z,2.70
2018-12-26T14:26:34.814Z,2.70
2018-12-26T14:29:03.250Z,2.70
2018-12-26T14:35:00.320Z,2.70
2018-12-26T14:37:29.287Z,2.50
2018-12-26T14:43:38.966Z,2.50
2018-12-26T14:46:07.474Z,2.30
2018-12-26T14:48:36.081Z,2.30
2018-12-26T14:51:04.892Z,2.20
2018-12-26T14:53:33.327Z,2.20
2018-12-26T14:56:02.059Z,2.20
2018-12-26T14:58:30.603Z,2.10
2018-12-26T15:00:59.343Z,2.10
2018-12-26T15:03:27.846Z,2.10
2018-12-26T15:09:25.646Z,2.10
2018-12-26T15:11:54.325Z,2.10
2018-12-26T15:14:22.773Z,2.10
2018-12-26T15:16:51.212Z,2.10
2018-12-26T15:19:19.888Z,2.10
2018-12-26T15:21:48.315Z,2.20
2018-12-26T15:24:17.111Z,2.10
2018-12-26T15:26:45.770Z,2.10
2018-12-26T15:29:14.210Z,2.10
2018-12-26T15:31:42.647Z,2.10
2018-12-26T15:34:11.307Z,2.10
2018-12-26T15:36:39.914Z,2.10
2018-12-26T15:39:09.559Z,2.00
2018-12-26T15:41:38.303Z,2.00
2018-12-26T15:44:06.735Z,1.90
2018-12-26T15:46:35.167Z,1.80
2018-12-26T15:49:03.947Z,1.80
2018-12-26T15:51:32.383Z,1.80
2018-12-26T15:54:00.818Z,1.70
2018-12-26T15:56:29.420Z,1.70
2018-12-26T15:58:57.846Z,1.60
2018-12-26T16:01:26.287Z,1.60
2018-12-26T16:03:55.124Z,1.60
2018-12-26T16:06:23.555Z,1.60
2018-12-26T16:08:52.307Z,1.60
2018-12-26T16:14:49.352Z,1.60
2018-12-26T16:17:18.079Z,1.70
2018-12-26T16:19:46.510Z,1.70
2018-12-26T16:22:15.203Z,1.80
2018-12-26T16:24:44.047Z,1.90
2018-12-26T16:27:12.485Z,1.90
2018-12-26T16:29:41.278Z,1.90
2018-12-26T16:32:09.811Z,1.90
2018-12-26T16:34:38.263Z,2.00
2018-12-26T16:37:06.702Z,2.00
2018-12-26T16:39:35.869Z,2.10
2018-12-26T16:42:04.677Z,2.20
2018-12-26T16:44:33.419Z,2.30
2018-12-26T16:47:02.416Z,2.20
2018-12-26T16:49:30.851Z,2.30
2018-12-26T16:51:59.288Z,2.30
2018-12-26T16:54:27.915Z,2.30
2018-12-26T16:56:56.472Z,2.30
2018-12-26T16:59:25.252Z,2.40
2018-12-26T17:01:53.883Z,2.40
2018-12-26T17:04:22.315Z,2.40
2018-12-26T17:06:51.122Z,2.30
2018-12-26T17:09:19.910Z,2.30
2018-12-26T17:11:48.412Z,2.30
2018-12-26T17:14:17.183Z,2.30
2018-12-26T17:16:45.923Z,2.30
2018-12-26T17:19:14.669Z,2.30
2018-12-26T17:21:43.104Z,2.30
2018-12-26T17:24:16.520Z,2.20
2018-12-26T17:26:42.155Z,2.20
2018-12-26T17:29:10.861Z,2.20
2018-12-26T17:31:39.494Z,2.20
2018-12-26T17:34:07.930Z,2.20
2018-12-26T17:36:36.413Z,2.30
2018-12-26T17:39:06.862Z,2.30
2018-12-26T17:41:35.303Z,2.30
2018-12-26T17:44:04.020Z,2.40
2018-12-26T17:46:33.126Z,2.30
2018-12-26T17:52:19.050Z,2.40
2018-12-26T17:54:48.726Z,2.30
2018-12-26T17:57:17.239Z,2.20
2018-12-26T17:59:48.782Z,2.20
2018-12-26T18:02:23.190Z,2.10
2018-12-26T18:04:51.795Z,2.10
2018-12-26T18:07:20.503Z,2.00
2018-12-26T18:09:48.949Z,2.00
2018-12-26T18:12:17.396Z,2.00
2018-12-26T18:14:45.855Z,2.00
2018-12-26T18:17:14.291Z,2.10
2018-12-26T18:19:42.728Z,2.00
2018-12-26T18:22:11.294Z,2.00
2018-12-26T18:24:39.719Z,2.00
2018-12-26T18:27:08.159Z,2.00
2018-12-26T18:29:36.999Z,2.00
2018-12-26T18:32:05.431Z,1.90
2018-12-26T18:34:33.871Z,1.90
2018-12-26T18:40:30.803Z,1.90
2018-12-26T18:42:59.237Z,1.80
2018-12-26T18:45:27.967Z,1.70
2018-12-26T18:47:56.407Z,1.70
2018-12-26T18:50:25.195Z,1.80
2018-12-26T18:52:53.935Z,1.70
2018-12-26T18:55:22.368Z,1.70
2018-12-26T18:57:50.815Z,1.70
2018-12-26T19:00:19.852Z,1.60
2018-12-26T19:02:48.291Z,1.60
2018-12-26T19:05:16.732Z,1.60
2018-12-26T19:07:45.191Z,1.60
2018-12-26T19:10:13.900Z,1.60
2018-12-26T19:12:42.341Z,1.60
2018-12-26T19:15:10.816Z,1.60
2018-12-26T19:17:39.258Z,1.70
2018-12-26T19:20:09.006Z,1.70
2018-12-26T19:22:37.467Z,1.70
2018-12-26T19:25:05.970Z,1.70
2018-12-26T19:27:34.725Z,1.70
2018-12-26T19:30:03.563Z,1.60
2018-12-26T19:36:13.147Z,1.60
2018-12-26T19:38:41.578Z,1.60
2018-12-26T19:41:10.012Z,1.60
2018-12-26T19:43:38.496Z,1.70
2018-12-26T19:46:06.926Z,1.70
2018-12-26T19:48:35.376Z,1.70
2018-12-26T19:51:04.255Z,1.60
2018-12-26T19:53:32.943Z,1.60
2018-12-26T19:56:01.396Z,1.60
2018-12-26T19:58:29.859Z,1.50
2018-12-26T20:04:39.590Z,1.60
2018-12-26T20:07:08.022Z,1.40
2018-12-26T20:13:05.162Z,1.50
2018-12-26T20:15:33.920Z,1.50
2018-12-26T20:18:02.653Z,1.50
2018-12-26T20:20:31.094Z,1.40
2018-12-26T20:23:00.135Z,1.50
2018-12-26T20:25:28.575Z,1.50
2018-12-26T20:27:57.020Z,1.50
2018-12-26T20:30:25.484Z,1.50
2018-12-26T20:36:35.167Z,1.50
2018-12-26T20:42:45.003Z,1.50
2018-12-26T20:48:54.535Z,1.60
2018-12-26T20:51:22.976Z,1.50
2018-12-26T20:57:20.575Z,1.40
2018-12-26T20:59:49.430Z,1.50
2018-12-26T21:05:59.957Z,1.60
2018-12-26T21:12:09.598Z,1.50
2018-12-26T21:14:38.039Z,1.40
2018-12-26T21:20:35.496Z,1.50
2018-12-26T21:23:04.312Z,1.50
2018-12-26T21:29:13.740Z,1.60
2018-12-26T21:35:23.640Z,1.40
2018-12-26T21:37:52.146Z,1.30
2018-12-26T21:40:20.942Z,1.30
2018-12-26T21:42:49.427Z,1.20
2018-12-26T21:48:58.702Z,1.20
2018-12-26T21:54:56.411Z,1.20
2018-12-26T21:57:25.196Z,1.30
2018-12-26T21:59:53.635Z,1.30
2018-12-26T22:02:22.554Z,1.30
2018-12-26T22:04:51.444Z,1.30
2018-12-26T22:10:24.073Z,1.30
2018-12-26T22:12:52.869Z,1.20
2018-12-26T22:19:02.470Z,1.20
2018-12-26T22:21:31.263Z,1.30
2018-12-26T22:27:28.138Z,1.30
2018-12-26T22:29:57.001Z,1.40
2018-12-26T22:32:30.638Z,1.40
2018-12-26T22:34:55.599Z,1.40
2018-12-26T22:40:52.470Z,1.40
2018-12-26T22:43:20.940Z,1.20
2018-12-26T22:45:49.375Z,1.20
2018-12-26T22:48:17.809Z,1.30
2018-12-26T22:50:46.303Z,1.30
2018-12-26T22:53:14.742Z,1.30
2018-12-26T22:55:43.179Z,1.30
2018-12-26T23:01:40.259Z,1.30
2018-12-26T23:04:08.731Z,1.30
2018-12-26T23:06:37.470Z,1.30
2018-12-26T23:09:07.335Z,1.20
2018-12-26T23:11:35.822Z,1.30
2018-12-26T23:14:04.395Z,1.40
2018-12-26T23:20:01.813Z,1.40
2018-12-26T23:22:30.279Z,1.40
2018-12-26T23:24:58.719Z,1.30
2018-12-26T23:27:27.160Z,1.20
2018-12-26T23:33:24.432Z,1.10
2018-12-26T23:39:21.226Z,1.10
2018-12-26T23:41:49.701Z,1.20
2018-12-26T23:44:18.417Z,1.20
2018-12-26T23:50:16.045Z,1.10
2018-12-26T23:52:44.516Z,1.10
2018-12-26T23:55:12.951Z,1.00
